Elgin, Tennessee
Current Conditions -  °F | °C
As of 12:53 PM on Monday 22 Dec 2014 (Local Time) from KOQT Reporting Station
Overcast Overcast  
Wind Chill: 53°   Ceiling: 3500
Heat Index: 53°   Visibility: 10mi
Dew Point: 39°   Wind: 3mph
Humidity: 59%   Direction: 340°NNW
Pressure: 29.93"   Gusts: NA
Location:  36.33°N, 84.61°W
Report Text: KOQT 221753Z AUTO 34003KT 10SM BKN035 OVC100 12/04 A2993 RMK AO2 SLP137 T01170039 10117 20072 58035
Loading
Personal Weather Stations






























Interactive Weather Map New forecast layout! Learn more

10-Day Weather Forecast

Advertisements
Track Severe Weather on mobile